Impacts TAF Board
For situational awareness. Not to be used for flight planning purposes.
IDs:

KSLC - Salt Lake City Intl, UT, US

Issued at 2337 UTC 22 Oct 2018
Updated at 0240 UTC 23 Oct 2018
Potential Impact None Slight Moderate High
Time0154Z 23/03Z 23/04Z 23/05Z 23/06Z 23/07Z 23/08Z 23/09Z 23/10Z 23/11Z 23/12Z 23/13Z 23/14Z 23/15Z>>
Type OBS PRVL PRVL PRVL PRVL PRVL PRVL PRVL PRVL PRVL PRVL PRVL PRVL PRVL
VIS 10 >6 >6 >6 >6 >6 >6 >6 >6 >6 >6 >6 >6 >6
CIG 75 60 60 60 60 80 80 80 80 80 80 80 80 80
Cover OVC BKN BKN BKN BKN BKN BKN BKN BKN BKN BKN BKN BKN BKN
FltCat VFR VFR VFR VFR VFR VFR VFR VFR VFR VFR VFR VFR VFR VFR
WX -RA VCSH VCSH VCSH VCSH -- -- -- -- -- -- -- -- --
WDir 190 170 170 170 170 150 150 150 150 150 150 150 150 150
WSpd 3 6 6 6 6 6 6 6 6 6 6 6 6 6
WGst -- -- -- -- -- -- -- -- -- -- -- -- -- --
Raw TAF
KSLC 222337Z 2300/2406 35008KT P6SM -SHRA SCT040 BKN070
  FM230200 17006KT P6SM VCSH SCT030 BKN060
  FM230700 15006KT P6SM SCT050 BKN080
  FM231900 29006KT P6SM SCT050 BKN080


Raw METAR
KSLC 230154Z 19003KT 10SM -RA FEW040 OVC075 13/10 A3005 RMK AO2 RAB40 SLP155 P0000 T01330100
KSLC 230054Z 35007KT 10SM SCT090 BKN120 OVC180 14/09 A3004 RMK AO2 SLP149 VCSH T01390094
KSLC 222354Z 35005KT 10SM SCT080 BKN100 BKN120 BKN210 15/10 A3004 RMK AO2 RAE26 SLP148 VCSH P0000 60000 T01500100 10200 20144 58001

METAR Board
Radar Display
Forecast Discussion
For situational awareness. Not to be used for flight planning purposes.